createdAt,value
2017-06-05T00:01:24.502Z,10.43
2017-06-05T00:03:51.962Z,9.33
2017-06-05T00:06:19.434Z,11.40
2017-06-05T00:08:46.873Z,8.70
2017-06-05T00:11:14.330Z,8.40
2017-06-05T00:13:41.790Z,10.50
2017-06-05T00:16:09.253Z,12.23
2017-06-05T00:18:36.708Z,10.63
2017-06-05T00:21:04.166Z,9.60
2017-06-05T00:23:31.621Z,10.80
2017-06-05T00:25:59.125Z,11.43
2017-06-05T00:28:26.586Z,14.00
2017-06-05T00:30:54.035Z,11.60
2017-06-05T00:33:21.493Z,9.10
2017-06-05T00:35:49.041Z,9.43
2017-06-05T00:38:16.497Z,8.80
2017-06-05T00:40:43.958Z,9.50
2017-06-05T00:43:11.423Z,7.37
2017-06-05T00:45:38.896Z,8.60
2017-06-05T00:48:07.107Z,7.67
2017-06-05T00:50:34.601Z,7.00
2017-06-05T00:53:02.050Z,8.70
2017-06-05T00:55:29.514Z,9.60
2017-06-05T00:57:56.998Z,10.63
2017-06-05T01:00:24.456Z,8.30
2017-06-05T01:02:52.713Z,10.33
2017-06-05T01:05:20.185Z,10.90
2017-06-05T01:07:48.439Z,10.80
2017-06-05T01:10:15.997Z,12.50
2017-06-05T01:12:43.446Z,9.97
2017-06-05T01:15:10.930Z,14.03
2017-06-05T01:17:39.162Z,14.10
2017-06-05T01:20:06.635Z,13.07
2017-06-05T01:22:34.213Z,11.20
2017-06-05T01:25:01.665Z,11.80
2017-06-05T01:27:29.158Z,12.10
2017-06-05T01:29:56.614Z,13.00
2017-06-05T01:32:24.065Z,13.50
2017-06-05T01:34:51.533Z,12.03
2017-06-05T01:37:19.061Z,13.57
2017-06-05T01:39:46.534Z,10.83
2017-06-05T01:42:14.745Z,13.10
2017-06-05T01:44:42.217Z,13.97
2017-06-05T01:47:09.677Z,14.50
2017-06-05T01:49:37.173Z,14.70
2017-06-05T01:52:05.430Z,14.03
2017-06-05T01:54:32.890Z,12.03
2017-06-05T01:57:00.349Z,11.70
2017-06-05T01:59:27.806Z,11.47
2017-06-05T02:01:55.373Z,10.67
2017-06-05T02:04:22.830Z,14.03
2017-06-05T02:06:51.093Z,11.20
2017-06-05T02:09:18.545Z,10.70
2017-06-05T02:11:45.997Z,11.13
2017-06-05T02:14:13.465Z,12.93
2017-06-05T02:16:40.914Z,15.90
2017-06-05T02:19:08.481Z,11.40
2017-06-05T02:21:35.925Z,11.07
2017-06-05T02:24:03.389Z,12.30
2017-06-05T02:26:30.845Z,13.20
2017-06-05T02:28:58.409Z,11.43
2017-06-05T02:31:25.870Z,10.63
2017-06-05T02:33:53.326Z,10.93
2017-06-05T02:36:20.894Z,10.37
2017-06-05T02:38:48.341Z,11.63
2017-06-05T02:41:15.902Z,12.93
2017-06-05T02:43:43.355Z,14.60
2017-06-05T02:46:11.806Z,11.43
2017-06-05T02:48:39.258Z,10.73
2017-06-05T02:51:06.707Z,9.97
2017-06-05T02:53:34.174Z,11.43
2017-06-05T02:56:01.665Z,9.93
2017-06-05T02:58:29.126Z,13.27
2017-06-05T03:00:56.577Z,9.80
2017-06-05T03:03:24.038Z,10.87
2017-06-05T03:05:51.504Z,9.70
2017-06-05T03:08:19.050Z,9.80
2017-06-05T03:10:46.518Z,10.07
2017-06-05T03:13:13.976Z,12.70
2017-06-05T03:15:41.533Z,13.23
2017-06-05T03:18:09.017Z,9.13
2017-06-05T03:20:36.473Z,11.30
2017-06-05T03:23:04.685Z,10.53
2017-06-05T03:25:32.138Z,9.63
2017-06-05T03:27:59.601Z,9.00
2017-06-05T03:30:27.073Z,10.57
2017-06-05T03:32:54.545Z,11.20
2017-06-05T03:35:22.010Z,11.50
2017-06-05T03:37:49.494Z,11.97
2017-06-05T03:40:16.956Z,9.60
2017-06-05T03:42:44.402Z,10.13
2017-06-05T03:45:12.708Z,10.17
2017-06-05T03:47:40.155Z,16.00
2017-06-05T03:50:07.609Z,10.10
2017-06-05T03:52:35.057Z,9.67
2017-06-05T03:55:02.542Z,9.23
2017-06-05T03:57:29.994Z,9.17
2017-06-05T03:59:57.447Z,10.50
2017-06-05T04:02:24.910Z,8.40
2017-06-05T04:04:52.365Z,7.90
2017-06-05T04:07:19.854Z,8.83
2017-06-05T04:09:47.382Z,6.97
2017-06-05T04:12:14.869Z,7.17
2017-06-05T04:14:42.437Z,8.00
2017-06-05T04:17:09.890Z,8.83
2017-06-05T04:19:37.452Z,8.27
2017-06-05T04:22:05.009Z,7.40
2017-06-05T04:24:32.469Z,6.67
2017-06-05T04:27:00.030Z,6.23
2017-06-05T04:29:27.505Z,6.50
2017-06-05T04:31:55.722Z,6.23
2017-06-05T04:34:23.169Z,6.87
2017-06-05T04:36:50.638Z,7.00
2017-06-05T04:39:18.094Z,7.27
2017-06-05T04:41:45.553Z,7.00
2017-06-05T04:44:13.017Z,8.43
2017-06-05T04:46:40.509Z,5.73
2017-06-05T04:49:07.962Z,6.10
2017-06-05T04:51:35.405Z,6.87
2017-06-05T04:54:02.859Z,5.07
2017-06-05T04:56:30.309Z,4.53
2017-06-05T04:58:57.782Z,5.77
2017-06-05T05:01:25.229Z,6.57
2017-06-05T05:03:52.696Z,4.87
2017-06-05T05:06:20.138Z,5.87
2017-06-05T05:08:47.602Z,4.63
2017-06-05T05:11:15.054Z,7.87
2017-06-05T05:13:42.533Z,4.80
2017-06-05T05:16:09.978Z,6.80
2017-06-05T05:18:37.470Z,6.20
2017-06-05T05:21:04.933Z,7.13
2017-06-05T05:23:33.153Z,6.93
2017-06-05T05:26:00.613Z,5.53
2017-06-05T05:28:28.057Z,6.83
2017-06-05T05:30:55.554Z,8.10
2017-06-05T05:33:23.016Z,6.10
2017-06-05T05:35:51.229Z,5.73
2017-06-05T05:38:18.701Z,6.17
2017-06-05T05:40:46.158Z,7.20
2017-06-05T05:43:13.621Z,5.40
2017-06-05T05:45:41.087Z,5.03
2017-06-05T05:48:08.559Z,6.40
2017-06-05T05:50:36.009Z,4.93
2017-06-05T05:53:03.458Z,4.50
2017-06-05T05:55:30.914Z,5.23
2017-06-05T05:57:58.374Z,5.00
2017-06-05T06:00:25.831Z,6.07
2017-06-05T06:02:53.288Z,5.57
2017-06-05T06:05:20.749Z,6.83
2017-06-05T06:07:48.205Z,5.53
2017-06-05T06:10:15.670Z,6.23
2017-06-05T06:12:43.118Z,6.83
2017-06-05T06:15:10.578Z,6.13
2017-06-05T06:17:38.034Z,6.53
2017-06-05T06:20:05.499Z,9.63
2017-06-05T06:22:32.942Z,6.63
2017-06-05T06:25:00.390Z,7.03
2017-06-05T06:27:27.849Z,6.30
2017-06-05T06:29:55.303Z,6.63
2017-06-05T06:32:22.769Z,7.67
2017-06-05T06:34:50.234Z,5.90
2017-06-05T06:37:17.690Z,7.00
2017-06-05T06:39:45.142Z,5.67
2017-06-05T06:42:12.590Z,5.33
2017-06-05T06:44:40.053Z,7.07
2017-06-05T06:47:07.502Z,9.60
2017-06-05T06:49:34.985Z,7.27
2017-06-05T06:52:02.431Z,6.70
2017-06-05T06:54:29.877Z,8.90
2017-06-05T06:56:57.342Z,7.47
2017-06-05T06:59:24.786Z,7.40
2017-06-05T07:01:52.257Z,7.63
2017-06-05T07:04:19.705Z,8.07
2017-06-05T07:06:47.178Z,7.07
2017-06-05T07:09:14.627Z,7.03
2017-06-05T07:11:42.086Z,6.90
2017-06-05T07:14:09.540Z,8.00
2017-06-05T07:16:37.015Z,9.63
2017-06-05T07:19:04.465Z,7.10
2017-06-05T07:21:31.910Z,8.70
2017-06-05T07:23:59.376Z,7.13
2017-06-05T07:26:26.821Z,8.63
2017-06-05T07:28:54.279Z,7.83
2017-06-05T07:31:21.732Z,11.07
2017-06-05T07:33:49.204Z,7.67
2017-06-05T07:36:16.672Z,7.33
2017-06-05T07:38:44.118Z,7.53
2017-06-05T07:41:11.591Z,7.00
2017-06-05T07:43:39.060Z,7.00
2017-06-05T07:46:07.294Z,7.70
2017-06-05T07:48:34.753Z,7.73
2017-06-05T07:51:02.218Z,8.70
2017-06-05T07:53:29.675Z,12.93
2017-06-05T07:55:57.121Z,8.07
2017-06-05T07:58:24.585Z,6.63
2017-06-05T08:00:52.040Z,8.20
2017-06-05T08:03:19.509Z,7.57
2017-06-05T08:05:46.965Z,5.47
2017-06-05T08:08:14.441Z,6.37
2017-06-05T08:10:42.662Z,5.63
2017-06-05T08:13:10.110Z,5.30
2017-06-05T08:15:37.586Z,5.47
2017-06-05T08:18:05.045Z,5.20
2017-06-05T08:20:32.509Z,7.83
2017-06-05T08:22:59.957Z,5.07
2017-06-05T08:25:27.413Z,5.37
2017-06-05T08:27:54.865Z,5.20
2017-06-05T08:30:22.346Z,5.33
2017-06-05T08:32:49.798Z,4.67
2017-06-05T08:35:18.228Z,6.53
2017-06-05T08:37:46.502Z,5.43
2017-06-05T08:40:14.712Z,4.70
2017-06-05T08:42:42.182Z,7.50
2017-06-05T08:45:09.642Z,4.83
2017-06-05T08:47:37.101Z,5.73
2017-06-05T08:50:04.566Z,4.63
2017-06-05T08:52:32.038Z,6.97
2017-06-05T08:54:59.487Z,4.40
2017-06-05T08:57:26.950Z,5.90
2017-06-05T08:59:54.390Z,4.70
2017-06-05T09:02:21.870Z,6.50
2017-06-05T09:04:49.317Z,4.47
2017-06-05T09:07:16.771Z,6.93
2017-06-05T09:09:44.240Z,4.63
2017-06-05T09:12:11.693Z,4.33
2017-06-05T09:14:39.153Z,7.33
2017-06-05T09:17:06.609Z,4.67
2017-06-05T09:19:34.089Z,6.93
2017-06-05T09:22:08.056Z,4.60
2017-06-05T09:24:35.541Z,6.27
2017-06-05T09:27:04.791Z,4.50
2017-06-05T09:29:32.248Z,4.87
2017-06-05T09:31:59.716Z,6.13
2017-06-05T09:34:27.161Z,3.97
2017-06-05T09:36:54.622Z,4.20
2017-06-05T09:39:22.094Z,4.90
2017-06-05T09:41:49.568Z,4.03
2017-06-05T09:44:17.029Z,3.73
2017-06-05T09:46:44.481Z,3.53
2017-06-05T09:49:11.953Z,4.87
2017-06-05T09:51:40.177Z,4.40
2017-06-05T09:54:07.645Z,4.53
2017-06-05T09:56:35.094Z,4.17
2017-06-05T09:59:02.573Z,3.70
2017-06-05T10:01:30.025Z,3.70
2017-06-05T10:03:57.494Z,3.40
2017-06-05T10:06:24.961Z,3.97
2017-06-05T10:08:52.414Z,4.23
2017-06-05T10:11:19.873Z,3.47
2017-06-05T10:13:47.325Z,6.93
2017-06-05T10:16:14.818Z,6.53
2017-06-05T10:18:42.287Z,5.33
2017-06-05T10:21:09.730Z,4.20
2017-06-05T10:23:37.961Z,7.63
2017-06-05T10:26:05.418Z,4.07
2017-06-05T10:31:06.885Z,3.60
2017-06-05T10:33:34.357Z,4.23
2017-06-05T10:36:01.818Z,4.20
2017-06-05T10:38:29.282Z,6.83
2017-06-05T10:40:56.741Z,5.90
2017-06-05T10:43:24.186Z,7.00
2017-06-05T10:45:51.649Z,3.47
2017-06-05T10:48:19.089Z,3.43
2017-06-05T10:50:46.566Z,3.00
2017-06-05T10:53:14.016Z,2.90
2017-06-05T10:55:41.457Z,3.57
2017-06-05T10:58:08.946Z,3.40
2017-06-05T11:00:37.163Z,2.97
2017-06-05T11:03:04.641Z,3.63
2017-06-05T11:05:32.093Z,3.80
2017-06-05T11:07:59.537Z,5.63
2017-06-05T11:10:27.016Z,6.40
2017-06-05T11:12:54.473Z,4.90
2017-06-05T11:15:21.930Z,7.20
2017-06-05T11:17:49.402Z,3.43
2017-06-05T11:20:16.850Z,4.30
2017-06-05T11:22:44.321Z,4.20
2017-06-05T11:25:11.766Z,4.30
2017-06-05T11:27:39.214Z,7.13
2017-06-05T11:30:06.685Z,3.50
2017-06-05T11:32:34.121Z,3.80
2017-06-05T11:35:01.586Z,4.03
2017-06-05T11:37:29.051Z,6.23
2017-06-05T11:39:56.501Z,4.17
2017-06-05T11:42:23.954Z,3.60
2017-06-05T11:44:51.415Z,3.93
2017-06-05T11:47:18.868Z,4.90
2017-06-05T11:49:46.326Z,6.17
2017-06-05T11:52:13.785Z,3.73
2017-06-05T11:54:41.249Z,4.17
2017-06-05T11:57:08.707Z,4.23
2017-06-05T11:59:36.156Z,4.27
2017-06-05T12:02:03.617Z,6.63
2017-06-05T12:04:31.081Z,4.23
2017-06-05T12:06:58.549Z,4.30
2017-06-05T12:09:26.009Z,3.80
2017-06-05T12:11:53.458Z,3.40
2017-06-05T12:14:20.931Z,3.57
2017-06-05T12:16:49.149Z,4.20
2017-06-05T12:19:16.629Z,4.33
2017-06-05T12:21:44.085Z,3.50
2017-06-05T12:24:11.551Z,3.90
2017-06-05T12:26:39.023Z,3.30
2017-06-05T12:29:06.505Z,3.30
2017-06-05T12:31:33.957Z,3.37
2017-06-05T12:34:02.230Z,3.30
2017-06-05T12:36:29.698Z,3.00
2017-06-05T12:38:57.527Z,3.57
2017-06-05T12:41:24.966Z,3.10
2017-06-05T12:43:52.441Z,2.93
2017-06-05T12:46:19.898Z,8.07
2017-06-05T12:48:47.346Z,3.20
2017-06-05T12:51:14.817Z,5.77
2017-06-05T12:53:42.273Z,2.67
2017-06-05T12:56:09.740Z,4.80
2017-06-05T12:58:37.198Z,4.50
2017-06-05T13:01:04.641Z,2.20
2017-06-05T13:03:32.105Z,3.20
2017-06-05T13:05:59.564Z,2.53
2017-06-05T13:08:27.018Z,3.03
2017-06-05T13:10:54.471Z,4.90
2017-06-05T13:13:21.953Z,5.23
2017-06-05T13:15:50.170Z,6.50
2017-06-05T13:18:17.625Z,2.60
2017-06-05T13:20:45.090Z,4.40
2017-06-05T13:23:12.562Z,2.90
2017-06-05T13:25:40.010Z,3.00
2017-06-05T13:28:07.470Z,3.23
2017-06-05T13:30:34.922Z,3.13
2017-06-05T13:33:02.389Z,3.10
2017-06-05T13:35:29.841Z,4.07
2017-06-05T13:37:57.317Z,3.40
2017-06-05T13:40:24.778Z,2.57
2017-06-05T13:42:52.241Z,2.93
2017-06-05T13:45:19.715Z,3.40
2017-06-05T13:47:47.926Z,2.40
2017-06-05T13:50:15.382Z,3.50
2017-06-05T13:52:42.835Z,2.60
2017-06-05T13:55:10.318Z,2.70
2017-06-05T13:57:37.765Z,2.70
2017-06-05T14:00:05.214Z,5.03
2017-06-05T14:02:32.701Z,2.33
2017-06-05T14:05:00.157Z,2.80
2017-06-05T14:07:28.596Z,2.50
2017-06-05T14:09:56.037Z,4.27
2017-06-05T14:12:23.501Z,2.70
2017-06-05T14:14:50.959Z,2.73
2017-06-05T14:17:18.425Z,4.67
2017-06-05T14:19:45.865Z,2.80
2017-06-05T14:22:13.333Z,2.90
2017-06-05T14:24:40.778Z,2.77
2017-06-05T14:27:08.237Z,3.00
2017-06-05T14:29:35.689Z,3.27
2017-06-05T14:32:03.159Z,2.20
2017-06-05T14:34:30.594Z,3.40
2017-06-05T14:36:58.846Z,2.87
2017-06-05T14:39:26.302Z,3.63
2017-06-05T14:41:53.745Z,4.90
2017-06-05T14:44:21.209Z,3.10
2017-06-05T14:46:48.661Z,2.30
2017-06-05T14:49:16.130Z,2.37
2017-06-05T14:51:43.581Z,4.43
2017-06-05T14:54:11.042Z,2.83
2017-06-05T14:56:38.507Z,3.20
2017-06-05T14:59:05.965Z,3.20
2017-06-05T15:01:34.190Z,2.67
2017-06-05T15:04:01.664Z,3.80
2017-06-05T15:06:29.126Z,3.20
2017-06-05T15:08:56.599Z,5.63
2017-06-05T15:11:24.042Z,2.93
2017-06-05T15:13:51.493Z,3.67
2017-06-05T15:16:18.953Z,2.70
2017-06-05T15:18:46.406Z,4.60
2017-06-05T15:21:13.870Z,3.20
2017-06-05T15:23:41.316Z,3.57
2017-06-05T15:26:08.773Z,2.60
2017-06-05T15:28:36.225Z,2.83
2017-06-05T15:31:03.689Z,2.90
2017-06-05T15:33:31.153Z,2.77
2017-06-05T15:35:58.614Z,2.80
2017-06-05T15:38:26.301Z,2.40
2017-06-05T15:40:53.778Z,2.80
2017-06-05T15:43:21.225Z,2.47
2017-06-05T15:45:49.445Z,2.47
2017-06-05T15:48:16.902Z,2.50
2017-06-05T15:50:44.365Z,2.70
2017-06-05T15:53:11.821Z,2.57
2017-06-05T15:55:39.273Z,2.90
2017-06-05T15:58:06.729Z,3.00
2017-06-05T16:00:34.181Z,5.73
2017-06-05T16:03:01.664Z,2.83
2017-06-05T16:05:29.106Z,2.20
2017-06-05T16:07:56.577Z,2.20
2017-06-05T16:10:24.022Z,4.03
2017-06-05T16:12:51.512Z,3.47
2017-06-05T16:15:18.962Z,2.60
2017-06-05T16:17:46.409Z,1.70
2017-06-05T16:20:13.874Z,2.90
2017-06-05T16:22:41.333Z,2.40
2017-06-05T16:25:08.801Z,3.60
2017-06-05T16:27:36.249Z,3.07
2017-06-05T16:30:03.723Z,2.73
2017-06-05T16:32:31.941Z,3.13
2017-06-05T16:34:59.405Z,3.37
2017-06-05T16:37:26.853Z,9.80
2017-06-05T16:39:54.317Z,2.50
2017-06-05T16:42:21.770Z,17.37
2017-06-05T16:44:49.261Z,19.60
2017-06-05T16:47:16.709Z,2.93
2017-06-05T16:49:44.161Z,2.37
2017-06-05T16:52:11.633Z,2.30
2017-06-05T16:54:39.097Z,2.57
2017-06-05T16:57:06.554Z,3.93
2017-06-05T16:59:34.039Z,2.67
2017-06-05T17:02:01.478Z,2.67
2017-06-05T17:04:29.701Z,7.20
2017-06-05T17:06:57.167Z,2.33
2017-06-05T17:09:24.613Z,2.70
2017-06-05T17:11:52.173Z,2.67
2017-06-05T17:14:19.617Z,2.17
2017-06-05T17:16:47.067Z,2.50
2017-06-05T17:19:14.531Z,2.03
2017-06-05T17:21:41.974Z,2.00
2017-06-05T17:24:09.434Z,2.27
2017-06-05T17:26:36.882Z,2.00
2017-06-05T17:29:04.341Z,2.00
2017-06-05T17:31:31.791Z,1.60
2017-06-05T17:34:00.025Z,2.50
2017-06-05T17:36:27.474Z,2.33
2017-06-05T17:38:54.945Z,2.70
2017-06-05T17:41:22.389Z,5.43
2017-06-05T17:43:49.837Z,2.40
2017-06-05T17:46:17.306Z,2.63
2017-06-05T17:48:44.745Z,2.10
2017-06-05T17:51:12.209Z,3.20
2017-06-05T17:53:39.670Z,2.90
2017-06-05T17:56:07.144Z,2.50
2017-06-05T17:58:34.589Z,3.00
2017-06-05T18:01:02.049Z,2.67
2017-06-05T18:03:29.510Z,3.00
2017-06-05T18:05:56.965Z,3.33
2017-06-05T18:08:24.413Z,3.20
2017-06-05T18:10:51.885Z,2.83
2017-06-05T18:13:19.334Z,4.20
2017-06-05T18:15:46.822Z,3.20
2017-06-05T18:18:14.265Z,3.30
2017-06-05T18:20:41.717Z,3.03
2017-06-05T18:23:09.178Z,4.37
2017-06-05T18:25:36.642Z,3.43
2017-06-05T18:28:04.106Z,6.30
2017-06-05T18:30:31.562Z,5.97
2017-06-05T18:32:59.789Z,3.80
2017-06-05T18:35:27.239Z,4.53
2017-06-05T18:37:54.702Z,5.70
2017-06-05T18:40:22.154Z,7.30
2017-06-05T18:42:49.618Z,6.40
2017-06-05T18:45:17.071Z,6.03
2017-06-05T18:47:44.550Z,5.73
2017-06-05T18:50:11.997Z,5.60
2017-06-05T18:52:39.461Z,5.77
2017-06-05T18:55:06.921Z,7.60
2017-06-05T18:57:34.375Z,6.80
2017-06-05T19:00:01.837Z,9.50
2017-06-05T19:02:29.282Z,7.13
2017-06-05T19:04:56.749Z,6.20
2017-06-05T19:07:24.201Z,6.37
2017-06-05T19:09:51.673Z,6.80
2017-06-05T19:12:19.121Z,6.83
2017-06-05T19:14:46.587Z,6.50
2017-06-05T19:17:14.026Z,8.00
2017-06-05T19:19:41.493Z,6.83
2017-06-05T19:22:08.938Z,7.43
2017-06-05T19:24:36.409Z,7.90
2017-06-05T19:27:03.872Z,6.90
2017-06-05T19:29:31.337Z,9.30
2017-06-05T19:31:58.793Z,7.83
2017-06-05T19:34:26.249Z,7.03
2017-06-05T19:36:53.703Z,7.70
2017-06-05T19:39:21.262Z,9.97
2017-06-05T19:41:48.705Z,8.67
2017-06-05T19:44:16.177Z,11.93
2017-06-05T19:46:43.631Z,8.90
2017-06-05T19:49:11.174Z,8.97
2017-06-05T19:51:38.613Z,9.57
2017-06-05T19:54:06.105Z,9.30
2017-06-05T19:56:33.574Z,9.83
2017-06-05T19:59:01.025Z,9.80
2017-06-05T20:01:28.500Z,9.77
2017-06-05T20:03:56.718Z,10.20
2017-06-05T20:06:24.205Z,10.23
2017-06-05T20:08:51.770Z,10.07
2017-06-05T20:11:19.229Z,9.00
2017-06-05T20:13:46.790Z,10.03
2017-06-05T20:16:14.257Z,8.70
2017-06-05T20:18:41.712Z,8.97
2017-06-05T20:21:09.186Z,8.80
2017-06-05T20:23:37.397Z,9.10
2017-06-05T20:26:04.865Z,8.37
2017-06-05T20:28:32.332Z,8.50
2017-06-05T20:30:59.789Z,7.27
2017-06-05T20:33:27.242Z,7.03
2017-06-05T20:35:54.701Z,7.97
2017-06-05T20:38:22.145Z,8.90
2017-06-05T20:40:49.601Z,7.90
2017-06-05T20:43:17.067Z,9.83
2017-06-05T20:45:44.509Z,8.47
2017-06-05T20:48:11.965Z,8.27
2017-06-05T20:50:39.413Z,8.67
2017-06-05T20:53:06.886Z,9.17
2017-06-05T20:55:34.346Z,9.13
2017-06-05T20:58:25.793Z,8.30
2017-06-05T21:00:53.242Z,8.30
2017-06-05T21:03:20.704Z,7.63
2017-06-05T21:05:48.153Z,8.73
2017-06-05T21:08:15.616Z,8.07
2017-06-05T21:10:43.065Z,7.30
2017-06-05T21:13:10.534Z,7.47
2017-06-05T21:15:37.977Z,7.07
2017-06-05T21:18:05.442Z,7.97
2017-06-05T21:20:32.893Z,6.90
2017-06-05T21:23:00.353Z,7.30
2017-06-05T21:25:27.815Z,6.30
2017-06-05T21:27:55.283Z,7.00
2017-06-05T21:30:22.733Z,6.90
2017-06-05T21:32:50.199Z,6.53
2017-06-05T21:35:17.641Z,7.00
2017-06-05T21:38:20.341Z,6.77
2017-06-05T21:40:47.793Z,6.93
2017-06-05T21:43:15.245Z,6.03
2017-06-05T21:45:42.697Z,6.10
2017-06-05T21:48:10.169Z,6.27
2017-06-05T21:50:37.617Z,6.80
2017-06-05T21:53:05.075Z,6.60
2017-06-05T21:55:32.538Z,6.70
2017-06-05T21:57:59.989Z,6.40
2017-06-05T22:00:27.450Z,7.00
2017-06-05T22:02:54.897Z,6.80
2017-06-05T22:05:22.357Z,5.73
2017-06-05T22:07:49.805Z,6.77
2017-06-05T22:10:17.272Z,6.87
2017-06-05T22:12:44.717Z,6.17
2017-06-05T22:15:12.173Z,7.53
2017-06-05T22:17:39.617Z,8.83
2017-06-05T22:20:07.077Z,7.03
2017-06-05T22:22:34.531Z,7.10
2017-06-05T22:25:01.973Z,7.23
2017-06-05T22:27:29.433Z,4.90
2017-06-05T22:29:56.878Z,6.53
2017-06-05T22:32:24.345Z,5.40
2017-06-05T22:34:51.800Z,5.77
2017-06-05T22:37:19.269Z,5.87
2017-06-05T22:39:46.737Z,20.23
2017-06-05T22:42:14.210Z,52.67
2017-06-05T22:44:41.657Z,14.53
2017-06-05T22:47:09.117Z,9.43
2017-06-05T22:49:36.577Z,15.27
2017-06-05T22:52:04.034Z,8.80
2017-06-05T22:54:31.482Z,10.33
2017-06-05T22:56:58.949Z,9.27
2017-06-05T22:59:27.378Z,11.50
2017-06-05T23:01:54.857Z,15.83
2017-06-05T23:04:22.309Z,10.80
2017-06-05T23:06:49.772Z,10.53
2017-06-05T23:09:17.249Z,10.90
2017-06-05T23:11:44.715Z,11.50
2017-06-05T23:14:12.183Z,11.70
2017-06-05T23:16:39.629Z,12.80
2017-06-05T23:19:07.096Z,10.67
2017-06-05T23:21:34.554Z,11.90
2017-06-05T23:24:02.017Z,10.30
2017-06-05T23:26:29.473Z,11.50
2017-06-05T23:28:56.945Z,12.03
2017-06-05T23:31:25.161Z,10.83
2017-06-05T23:33:52.617Z,9.80
2017-06-05T23:36:20.078Z,13.40
2017-06-05T23:38:47.565Z,11.13
2017-06-05T23:41:15.021Z,11.43
2017-06-05T23:43:42.487Z,9.23
2017-06-05T23:46:09.937Z,7.20
2017-06-05T23:48:37.381Z,9.20
2017-06-05T23:51:04.842Z,10.37
2017-06-05T23:53:32.304Z,10.57
2017-06-05T23:55:59.769Z,9.47
2017-06-05T23:58:33.568Z,10.00
